Terminal Aerodrome Forecast
Issued by NWS Wilmington, OH

Current Version | Previous Version | Text Only | Print | Product List | Glossary Off
Versions: 1 2 3 4 5 6 7 8 9 10 11 12 13 14 15 16 17 18 19 20 21 22 23 24

000
FTUS41 KILN 230536
TAFDAY
TAF
KDAY 230536Z 2306/2406 18010KT P6SM FEW050
     FM230900 21007KT 3SM BR OVC022
     FM231600 23007KT P6SM BKN020
     FM232000 22007KT P6SM VCSH BKN045
     FM240000 17004KT P6SM BKN040
     FM240300 16005KT 6SM BR BKN017=

USA.gov is the U.S. government's official web portal to all federal, state and local government web resources and services.